createdAt,value
2018-06-10T00:00:04.935Z,972.89
2018-06-10T00:01:05.739Z,972.95
2018-06-10T00:02:06.015Z,972.95
2018-06-10T00:03:05.512Z,972.90
2018-06-10T00:04:05.105Z,972.90
2018-06-10T00:05:05.320Z,972.81
2018-06-10T00:06:05.869Z,972.72
2018-06-10T00:07:05.576Z,972.84
2018-06-10T00:08:05.465Z,972.84
2018-06-10T00:09:05.916Z,972.87
2018-06-10T00:10:07.128Z,972.72
2018-06-10T00:11:05.228Z,972.78
2018-06-10T00:12:05.253Z,972.78
2018-06-10T00:13:05.088Z,972.81
2018-06-10T00:14:05.643Z,972.93
2018-06-10T00:15:05.796Z,972.90
2018-06-10T00:16:05.430Z,972.90
2018-06-10T00:17:05.422Z,972.90
2018-06-10T00:18:05.688Z,972.73
2018-06-10T00:19:05.110Z,972.81
2018-06-10T00:20:05.059Z,972.90
2018-06-10T00:21:06.080Z,972.84
2018-06-10T00:22:05.177Z,972.84
2018-06-10T00:23:05.201Z,972.70
2018-06-10T00:24:05.432Z,972.73
2018-06-10T00:25:05.297Z,972.84
2018-06-10T00:26:06.010Z,972.78
2018-06-10T00:27:05.533Z,972.79
2018-06-10T00:28:05.790Z,972.76
2018-06-10T00:29:05.323Z,972.84
2018-06-10T00:30:06.301Z,972.73
2018-06-10T00:31:05.353Z,972.64
2018-06-10T00:32:05.295Z,972.96
2018-06-10T00:33:06.343Z,972.87
2018-06-10T00:34:05.889Z,972.81
2018-06-10T00:35:05.045Z,972.70
2018-06-10T00:36:05.169Z,972.61
2018-06-10T00:37:05.661Z,972.67
2018-06-10T00:38:05.068Z,972.70
2018-06-10T00:39:05.865Z,972.67
2018-06-10T00:40:05.513Z,972.67
2018-06-10T00:41:05.099Z,972.73
2018-06-10T00:42:05.613Z,972.55
2018-06-10T00:43:05.286Z,972.64
2018-06-10T00:44:10.348Z,972.55
2018-06-10T00:45:05.583Z,972.55
2018-06-10T00:46:05.244Z,972.55
2018-06-10T00:47:05.023Z,972.61
2018-06-10T00:48:05.867Z,972.61
2018-06-10T00:49:05.466Z,972.67
2018-06-10T00:50:05.477Z,972.61
2018-06-10T00:51:05.744Z,972.79
2018-06-10T00:52:05.686Z,972.73
2018-06-10T00:53:05.613Z,972.67
2018-06-10T00:54:05.601Z,972.70
2018-06-10T00:55:05.706Z,972.70
2018-06-10T00:56:04.981Z,972.62
2018-06-10T00:57:05.988Z,972.70
2018-06-10T00:58:05.542Z,972.67
2018-06-10T00:59:05.040Z,972.70
2018-06-10T01:00:05.414Z,972.70
2018-06-10T01:01:06.443Z,972.70
2018-06-10T01:02:06.465Z,972.67
2018-06-10T01:03:05.131Z,972.65
2018-06-10T01:04:05.796Z,972.71
2018-06-10T01:05:05.775Z,972.65
2018-06-10T01:06:05.783Z,972.65
2018-06-10T01:07:05.397Z,972.70
2018-06-10T01:08:06.330Z,972.73
2018-06-10T01:09:11.072Z,972.65
2018-06-10T01:10:05.516Z,972.70
2018-06-10T01:11:04.980Z,972.76
2018-06-10T01:12:05.915Z,972.82
2018-06-10T01:13:06.590Z,972.65
2018-06-10T01:14:05.656Z,972.73
2018-06-10T01:15:05.326Z,972.68
2018-06-10T01:16:06.016Z,972.77
2018-06-10T01:17:05.542Z,972.83
2018-06-10T01:18:05.047Z,972.94
2018-06-10T01:19:05.151Z,972.83
2018-06-10T01:20:05.293Z,972.80
2018-06-10T01:21:05.023Z,972.71
2018-06-10T01:22:05.356Z,972.71
2018-06-10T01:23:05.912Z,972.80
2018-06-10T01:24:05.084Z,972.77
2018-06-10T01:25:05.025Z,972.83
2018-06-10T01:26:05.906Z,972.80
2018-06-10T01:27:06.365Z,972.83
2018-06-10T01:28:05.805Z,972.72
2018-06-10T01:29:05.947Z,972.72
2018-06-10T01:30:05.945Z,972.80
2018-06-10T01:31:05.458Z,972.89
2018-06-10T01:32:04.994Z,972.78
2018-06-10T01:33:06.699Z,972.80
2018-06-10T01:34:05.446Z,972.63
2018-06-10T01:35:05.082Z,972.69
2018-06-10T01:36:05.496Z,972.72
2018-06-10T01:37:05.368Z,972.66
2018-06-10T01:38:10.382Z,972.66
2018-06-10T01:39:06.434Z,972.66
2018-06-10T01:40:05.980Z,972.72
2018-06-10T01:41:05.589Z,972.57
2018-06-10T01:42:05.197Z,972.60
2018-06-10T01:43:05.627Z,972.72
2018-06-10T01:44:05.474Z,972.72
2018-06-10T01:45:05.195Z,972.63
2018-06-10T01:46:06.230Z,972.69
2018-06-10T01:47:05.068Z,972.75
2018-06-10T01:48:05.178Z,972.55
2018-06-10T01:49:05.007Z,972.57
2018-06-10T01:50:05.651Z,972.47
2018-06-10T01:51:10.422Z,972.66
2018-06-10T01:52:05.300Z,972.52
2018-06-10T01:53:05.352Z,972.57
2018-06-10T01:54:06.071Z,972.57
2018-06-10T01:55:05.236Z,972.72
2018-06-10T01:56:05.210Z,972.47
2018-06-10T01:57:06.931Z,972.63
2018-06-10T01:58:05.385Z,972.52
2018-06-10T01:59:05.129Z,972.47
2018-06-10T02:00:05.093Z,972.41
2018-06-10T02:01:06.137Z,972.58
2018-06-10T02:02:10.799Z,972.55
2018-06-10T02:03:06.079Z,972.52
2018-06-10T02:04:05.581Z,972.61
2018-06-10T02:05:05.236Z,972.41
2018-06-10T02:06:05.489Z,972.58
2018-06-10T02:07:05.529Z,972.44
2018-06-10T02:08:05.049Z,972.52
2018-06-10T02:09:06.940Z,972.58
2018-06-10T02:10:05.046Z,972.55
2018-06-10T02:11:05.929Z,972.55
2018-06-10T02:12:05.501Z,972.61
2018-06-10T02:13:05.534Z,972.47
2018-06-10T02:14:05.633Z,972.44
2018-06-10T02:15:11.215Z,972.64
2018-06-10T02:16:05.156Z,972.64
2018-06-10T02:17:05.260Z,972.64
2018-06-10T02:18:05.788Z,972.55
2018-06-10T02:19:05.320Z,972.61
2018-06-10T02:20:06.346Z,972.55
2018-06-10T02:21:05.791Z,972.61
2018-06-10T02:22:05.695Z,972.56
2018-06-10T02:23:05.514Z,972.64
2018-06-10T02:24:05.517Z,972.76
2018-06-10T02:25:05.472Z,972.65
2018-06-10T02:26:05.077Z,972.70
2018-06-10T02:27:05.075Z,972.68
2018-06-10T02:28:05.294Z,972.71
2018-06-10T02:29:05.164Z,972.74
2018-06-10T02:30:05.760Z,972.59
2018-06-10T02:31:05.149Z,972.62
2018-06-10T02:32:06.263Z,972.71
2018-06-10T02:33:05.883Z,972.71
2018-06-10T02:34:05.479Z,972.62
2018-06-10T02:35:05.381Z,972.59
2018-06-10T02:36:05.497Z,972.68
2018-06-10T02:37:05.582Z,972.62
2018-06-10T02:38:10.731Z,972.62
2018-06-10T02:39:05.970Z,972.62
2018-06-10T02:40:05.558Z,972.65
2018-06-10T02:41:06.160Z,972.62
2018-06-10T02:42:05.471Z,972.68
2018-06-10T02:43:05.467Z,972.80
2018-06-10T02:44:05.660Z,972.77
2018-06-10T02:45:05.832Z,972.65
2018-06-10T02:46:05.633Z,972.60
2018-06-10T02:47:05.231Z,972.71
2018-06-10T02:48:05.397Z,972.68
2018-06-10T02:49:05.363Z,972.74
2018-06-10T02:50:05.118Z,972.68
2018-06-10T02:51:05.518Z,972.71
2018-06-10T02:52:05.499Z,972.77
2018-06-10T02:53:05.341Z,972.71
2018-06-10T02:54:05.277Z,972.74
2018-06-10T02:55:05.868Z,972.83
2018-06-10T02:56:05.087Z,972.71
2018-06-10T02:57:05.783Z,972.63
2018-06-10T02:58:06.914Z,972.71
2018-06-10T02:59:06.045Z,972.60
2018-06-10T03:00:05.530Z,972.63
2018-06-10T03:01:05.782Z,972.71
2018-06-10T03:02:05.946Z,972.68
2018-06-10T03:03:06.934Z,972.77
2018-06-10T03:04:05.067Z,972.63
2018-06-10T03:05:05.074Z,972.68
2018-06-10T03:06:05.979Z,972.68
2018-06-10T03:07:05.026Z,972.63
2018-06-10T03:08:05.136Z,972.68
2018-06-10T03:09:06.325Z,972.66
2018-06-10T03:10:05.865Z,972.74
2018-06-10T03:11:05.748Z,972.57
2018-06-10T03:12:05.428Z,972.68
2018-06-10T03:13:06.012Z,972.68
2018-06-10T03:14:05.222Z,972.57
2018-06-10T03:15:05.884Z,972.68
2018-06-10T03:16:05.106Z,972.65
2018-06-10T03:17:05.922Z,972.63
2018-06-10T03:18:05.762Z,972.46
2018-06-10T03:19:05.431Z,972.43
2018-06-10T03:20:05.430Z,972.54
2018-06-10T03:21:05.608Z,972.54
2018-06-10T03:22:10.516Z,972.60
2018-06-10T03:23:05.593Z,972.63
2018-06-10T03:24:05.415Z,972.49
2018-06-10T03:25:05.154Z,972.71
2018-06-10T03:26:05.155Z,972.54
2018-06-10T03:27:05.934Z,972.54
2018-06-10T03:28:06.543Z,972.49
2018-06-10T03:29:05.677Z,972.68
2018-06-10T03:30:05.424Z,972.49
2018-06-10T03:31:05.520Z,972.56
2018-06-10T03:32:05.195Z,972.49
2018-06-10T03:33:05.902Z,972.65
2018-06-10T03:34:05.889Z,972.62
2018-06-10T03:35:06.274Z,972.71
2018-06-10T03:36:05.873Z,972.68
2018-06-10T03:37:05.611Z,972.56
2018-06-10T03:38:05.824Z,972.65
2018-06-10T03:39:04.976Z,972.70
2018-06-10T03:40:05.129Z,972.62
2018-06-10T03:41:05.658Z,972.65
2018-06-10T03:42:05.835Z,972.65
2018-06-10T03:43:06.761Z,972.62
2018-06-10T03:44:05.880Z,972.56
2018-06-10T03:45:06.401Z,972.62
2018-06-10T03:46:05.487Z,972.64
2018-06-10T03:47:05.457Z,972.65
2018-06-10T03:48:05.531Z,972.59
2018-06-10T03:49:05.795Z,972.48
2018-06-10T03:50:05.667Z,972.61
2018-06-10T03:51:05.340Z,972.56
2018-06-10T03:52:05.953Z,972.56
2018-06-10T03:53:05.716Z,972.61
2018-06-10T03:54:05.400Z,972.61
2018-06-10T03:55:05.122Z,972.53
2018-06-10T03:56:05.282Z,972.67
2018-06-10T03:57:05.807Z,972.56
2018-06-10T03:58:05.016Z,972.59
2018-06-10T03:59:05.828Z,972.56
2018-06-10T04:00:05.744Z,972.70
2018-06-10T04:01:04.974Z,972.67
2018-06-10T04:02:05.254Z,972.67
2018-06-10T04:03:05.609Z,972.64
2018-06-10T04:04:05.465Z,972.64
2018-06-10T04:05:05.534Z,972.73
2018-06-10T04:06:05.479Z,972.73
2018-06-10T04:07:05.459Z,972.73
2018-06-10T04:08:05.296Z,972.67
2018-06-10T04:09:05.277Z,972.81
2018-06-10T04:10:05.373Z,972.73
2018-06-10T04:11:05.708Z,972.58
2018-06-10T04:12:05.418Z,972.72
2018-06-10T04:13:06.284Z,972.67
2018-06-10T04:14:11.123Z,972.61
2018-06-10T04:15:05.453Z,972.61
2018-06-10T04:16:05.333Z,972.66
2018-06-10T04:17:05.887Z,972.66
2018-06-10T04:18:05.849Z,972.72
2018-06-10T04:19:05.947Z,972.63
2018-06-10T04:20:05.754Z,972.72
2018-06-10T04:21:05.878Z,972.60
2018-06-10T04:22:05.499Z,972.54
2018-06-10T04:23:05.315Z,972.66
2018-06-10T04:24:05.682Z,972.74
2018-06-10T04:25:05.495Z,972.60
2018-06-10T04:26:05.878Z,972.62
2018-06-10T04:27:05.131Z,972.65
2018-06-10T04:28:05.229Z,972.56
2018-06-10T04:29:05.356Z,972.46
2018-06-10T04:30:05.295Z,972.59
2018-06-10T04:31:05.108Z,972.53
2018-06-10T04:32:05.726Z,972.73
2018-06-10T04:33:05.728Z,972.59
2018-06-10T04:34:05.913Z,972.56
2018-06-10T04:35:05.632Z,972.67
2018-06-10T04:36:05.866Z,972.64
2018-06-10T04:37:05.201Z,972.53
2018-06-10T04:38:05.176Z,972.73
2018-06-10T04:39:05.456Z,972.67
2018-06-10T04:40:05.441Z,972.70
2018-06-10T04:41:05.115Z,972.70
2018-06-10T04:42:05.116Z,972.67
2018-06-10T04:43:05.401Z,972.73
2018-06-10T04:44:05.615Z,972.73
2018-06-10T04:45:05.468Z,972.70
2018-06-10T04:46:05.695Z,972.75
2018-06-10T04:47:06.909Z,972.78
2018-06-10T04:48:05.933Z,972.78
2018-06-10T04:49:05.992Z,972.84
2018-06-10T04:50:04.990Z,972.75
2018-06-10T04:51:05.159Z,972.72
2018-06-10T04:52:05.102Z,972.75
2018-06-10T04:53:05.940Z,972.81
2018-06-10T04:54:05.440Z,972.78
2018-06-10T04:55:05.682Z,972.84
2018-06-10T04:56:05.724Z,972.89
2018-06-10T04:57:05.593Z,972.89
2018-06-10T04:58:05.154Z,972.86
2018-06-10T04:59:05.342Z,972.86
2018-06-10T05:00:05.254Z,972.92
2018-06-10T05:01:05.929Z,972.80
2018-06-10T05:02:05.941Z,972.77
2018-06-10T05:03:05.598Z,972.89
2018-06-10T05:04:05.130Z,972.80
2018-06-10T05:05:05.087Z,972.83
2018-06-10T05:06:05.214Z,972.83
2018-06-10T05:07:10.877Z,972.71
2018-06-10T05:08:06.219Z,972.68
2018-06-10T05:09:05.061Z,972.71
2018-06-10T05:10:05.839Z,972.74
2018-06-10T05:11:06.006Z,972.76
2018-06-10T05:12:05.593Z,972.68
2018-06-10T05:13:05.813Z,972.70
2018-06-10T05:14:06.038Z,972.73
2018-06-10T05:15:05.794Z,972.79
2018-06-10T05:16:05.649Z,972.87
2018-06-10T05:17:05.352Z,972.73
2018-06-10T05:18:05.689Z,972.75
2018-06-10T05:19:05.811Z,972.75
2018-06-10T05:20:05.847Z,972.72
2018-06-10T05:21:05.484Z,972.72
2018-06-10T05:22:05.705Z,972.72
2018-06-10T05:23:05.091Z,972.72
2018-06-10T05:24:06.024Z,972.71
2018-06-10T05:25:05.806Z,972.63
2018-06-10T05:26:05.265Z,972.68
2018-06-10T05:27:05.364Z,972.65
2018-06-10T05:28:05.263Z,972.74
2018-06-10T05:29:05.376Z,972.62
2018-06-10T05:30:05.511Z,972.79
2018-06-10T05:31:05.092Z,972.82
2018-06-10T05:32:05.435Z,972.84
2018-06-10T05:33:05.101Z,972.78
2018-06-10T05:34:05.655Z,972.67
2018-06-10T05:35:05.495Z,972.87
2018-06-10T05:36:07.259Z,972.75
2018-06-10T05:37:05.342Z,972.80
2018-06-10T05:38:06.471Z,972.77
2018-06-10T05:39:04.981Z,972.68
2018-06-10T05:40:05.104Z,972.77
2018-06-10T05:41:05.864Z,972.71
2018-06-10T05:42:05.982Z,972.68
2018-06-10T05:43:06.079Z,972.73
2018-06-10T05:44:05.451Z,972.76
2018-06-10T05:45:05.170Z,972.73
2018-06-10T05:46:05.957Z,972.73
2018-06-10T05:47:06.366Z,972.67
2018-06-10T05:48:05.846Z,972.81
2018-06-10T05:49:10.433Z,972.87
2018-06-10T05:50:05.217Z,972.81
2018-06-10T05:51:05.685Z,972.93
2018-06-10T05:52:04.996Z,972.81
2018-06-10T05:53:05.865Z,972.92
2018-06-10T05:54:05.528Z,972.81
2018-06-10T05:55:05.149Z,972.83
2018-06-10T05:56:06.880Z,972.77
2018-06-10T05:57:05.095Z,972.74
2018-06-10T05:58:05.624Z,972.89
2018-06-10T05:59:06.122Z,972.71
2018-06-10T06:00:05.191Z,972.77
2018-06-10T06:01:05.538Z,972.89
2018-06-10T06:02:05.292Z,972.83
2018-06-10T06:03:05.129Z,972.82
2018-06-10T06:04:05.086Z,972.76
2018-06-10T06:05:05.752Z,972.73
2018-06-10T06:06:05.481Z,972.70
2018-06-10T06:07:05.362Z,972.67
2018-06-10T06:08:04.996Z,972.82
2018-06-10T06:09:05.931Z,972.82
2018-06-10T06:10:10.668Z,972.84
2018-06-10T06:11:05.788Z,972.87
2018-06-10T06:12:05.775Z,972.95
2018-06-10T06:13:05.342Z,972.78
2018-06-10T06:14:05.218Z,972.98
2018-06-10T06:15:06.348Z,973.01
2018-06-10T06:16:05.860Z,972.92
2018-06-10T06:17:05.668Z,972.95
2018-06-10T06:18:05.750Z,973.01
2018-06-10T06:19:06.004Z,972.92
2018-06-10T06:20:05.959Z,973.09
2018-06-10T06:21:05.156Z,972.89
2018-06-10T06:22:06.133Z,972.97
2018-06-10T06:23:05.179Z,973.09
2018-06-10T06:24:05.218Z,972.94
2018-06-10T06:25:05.309Z,973.06
2018-06-10T06:26:05.464Z,972.97
2018-06-10T06:27:10.546Z,973.06
2018-06-10T06:28:05.916Z,973.06
2018-06-10T06:29:05.440Z,973.03
2018-06-10T06:30:05.676Z,973.09
2018-06-10T06:31:05.267Z,973.12
2018-06-10T06:32:05.368Z,973.15
2018-06-10T06:33:05.226Z,973.03
2018-06-10T06:34:06.112Z,973.06
2018-06-10T06:35:05.896Z,973.03
2018-06-10T06:36:05.792Z,973.00
2018-06-10T06:37:06.056Z,973.12
2018-06-10T06:38:05.752Z,973.20
2018-06-10T06:39:06.128Z,973.12
2018-06-10T06:40:05.816Z,973.06
2018-06-10T06:41:05.437Z,973.09
2018-06-10T06:42:05.686Z,973.23
2018-06-10T06:43:05.688Z,973.23
2018-06-10T06:44:05.865Z,973.09
2018-06-10T06:45:05.534Z,973.00
2018-06-10T06:46:05.201Z,973.12
2018-06-10T06:47:05.307Z,973.12
2018-06-10T06:48:05.259Z,973.00
2018-06-10T06:49:06.214Z,973.06
2018-06-10T06:50:05.906Z,972.97
2018-06-10T06:51:05.400Z,973.06
2018-06-10T06:52:05.700Z,973.11
2018-06-10T06:53:05.582Z,973.06
2018-06-10T06:54:05.583Z,973.08
2018-06-10T06:55:05.730Z,973.05
2018-06-10T06:56:05.244Z,972.97
2018-06-10T06:57:05.234Z,972.91
2018-06-10T06:58:05.355Z,973.05
2018-06-10T06:59:06.353Z,972.90
2018-06-10T07:00:05.263Z,972.96
2018-06-10T07:01:05.322Z,973.05
2018-06-10T07:02:05.715Z,973.11
2018-06-10T07:03:05.763Z,973.02
2018-06-10T07:04:05.626Z,973.05
2018-06-10T07:05:05.239Z,972.96
2018-06-10T07:06:05.255Z,973.04
2018-06-10T07:07:05.176Z,972.90
2018-06-10T07:08:05.246Z,972.93
2018-06-10T07:09:05.224Z,972.98
2018-06-10T07:10:05.684Z,972.92
2018-06-10T07:11:05.402Z,972.95
2018-06-10T07:12:05.117Z,972.98
2018-06-10T07:13:06.008Z,972.89
2018-06-10T07:14:05.154Z,972.95
2018-06-10T07:15:04.997Z,972.98
2018-06-10T07:16:10.839Z,972.89
2018-06-10T07:17:06.829Z,972.92
2018-06-10T07:18:05.372Z,972.97
2018-06-10T07:19:05.262Z,972.86
2018-06-10T07:20:05.414Z,972.91
2018-06-10T07:21:10.420Z,972.85
2018-06-10T07:22:05.608Z,972.97
2018-06-10T07:23:05.784Z,972.91
2018-06-10T07:24:06.132Z,972.91
2018-06-10T07:25:05.013Z,972.88
2018-06-10T07:26:06.121Z,972.85
2018-06-10T07:27:05.571Z,972.96
2018-06-10T07:28:05.671Z,972.81
2018-06-10T07:29:05.531Z,972.93
2018-06-10T07:30:05.614Z,972.96
2018-06-10T07:31:05.639Z,973.02
2018-06-10T07:32:05.127Z,972.87
2018-06-10T07:33:06.454Z,972.84
2018-06-10T07:34:05.503Z,973.01
2018-06-10T07:35:05.293Z,972.92
2018-06-10T07:36:06.162Z,972.86
2018-06-10T07:37:05.888Z,972.95
2018-06-10T07:38:06.212Z,972.89
2018-06-10T07:39:05.365Z,972.89
2018-06-10T07:40:05.896Z,972.92
2018-06-10T07:41:05.013Z,972.92
2018-06-10T07:42:05.731Z,972.89
2018-06-10T07:43:05.815Z,972.80
2018-06-10T07:44:06.105Z,972.79
2018-06-10T07:45:05.875Z,972.85
2018-06-10T07:46:06.676Z,972.82
2018-06-10T07:47:06.033Z,972.82
2018-06-10T07:48:06.934Z,972.91
2018-06-10T07:49:05.971Z,972.79
2018-06-10T07:50:05.048Z,972.87
2018-06-10T07:51:05.944Z,972.96
2018-06-10T07:52:05.754Z,972.87
2018-06-10T07:53:10.916Z,972.84
2018-06-10T07:54:06.085Z,972.90
2018-06-10T07:55:05.466Z,972.84
2018-06-10T07:56:05.857Z,972.98
2018-06-10T07:57:06.491Z,972.77
2018-06-10T07:58:05.410Z,972.86
2018-06-10T07:59:05.777Z,972.83
2018-06-10T08:00:05.993Z,972.83
2018-06-10T08:01:05.982Z,972.82
2018-06-10T08:02:05.415Z,972.94
2018-06-10T08:03:05.422Z,972.85
2018-06-10T08:04:05.218Z,972.97
2018-06-10T08:05:05.752Z,972.82
2018-06-10T08:06:05.798Z,972.94
2018-06-10T08:07:05.608Z,972.94
2018-06-10T08:08:05.959Z,972.91
2018-06-10T08:09:05.717Z,972.91
2018-06-10T08:10:05.668Z,972.93
2018-06-10T08:11:05.988Z,972.96
2018-06-10T08:12:05.331Z,972.96
2018-06-10T08:13:05.363Z,973.02
2018-06-10T08:14:05.407Z,972.99
2018-06-10T08:15:05.333Z,972.96
2018-06-10T08:16:06.100Z,973.05
2018-06-10T08:17:05.891Z,972.96
2018-06-10T08:18:06.716Z,972.93
2018-06-10T08:19:05.948Z,972.90
2018-06-10T08:20:05.352Z,972.99
2018-06-10T08:21:05.995Z,972.84
2018-06-10T08:22:06.150Z,972.96
2018-06-10T08:23:06.071Z,973.10
2018-06-10T08:24:05.429Z,972.93
2018-06-10T08:25:05.926Z,972.95
2018-06-10T08:26:11.362Z,973.10
2018-06-10T08:27:05.926Z,972.92
2018-06-10T08:28:05.360Z,973.07
2018-06-10T08:29:05.969Z,972.90
2018-06-10T08:30:05.903Z,972.92
2018-06-10T08:31:06.136Z,972.87
2018-06-10T08:32:05.862Z,972.89
2018-06-10T08:33:05.979Z,972.98
2018-06-10T08:34:06.981Z,972.95
2018-06-10T08:35:05.097Z,972.89
2018-06-10T08:36:06.695Z,972.92
2018-06-10T08:37:10.605Z,972.89
2018-06-10T08:38:05.172Z,972.92
2018-06-10T08:39:05.228Z,972.92
2018-06-10T08:40:05.316Z,972.86
2018-06-10T08:41:05.136Z,972.95
2018-06-10T08:42:05.005Z,972.78
2018-06-10T08:43:05.999Z,972.86
2018-06-10T08:44:05.907Z,972.83
2018-06-10T08:45:05.022Z,972.86
2018-06-10T08:46:05.541Z,972.92
2018-06-10T08:47:05.126Z,972.86
2018-06-10T08:48:05.381Z,972.86
2018-06-10T08:49:05.065Z,972.89
2018-06-10T08:50:05.312Z,972.98
2018-06-10T08:51:05.096Z,973.10
2018-06-10T08:52:05.189Z,973.04
2018-06-10T08:53:05.872Z,972.98
2018-06-10T08:54:04.956Z,972.98
2018-06-10T08:55:05.244Z,973.01
2018-06-10T08:56:05.144Z,973.01
2018-06-10T08:57:05.261Z,973.04
2018-06-10T08:58:05.148Z,973.07
2018-06-10T08:59:06.078Z,973.04
2018-06-10T09:00:05.495Z,972.98
2018-06-10T09:01:05.099Z,972.98
2018-06-10T09:02:05.195Z,973.13
2018-06-10T09:03:05.707Z,973.07
2018-06-10T09:04:05.269Z,973.01
2018-06-10T09:05:05.651Z,973.10
2018-06-10T09:06:05.630Z,973.13
2018-06-10T09:07:06.185Z,973.16
2018-06-10T09:08:06.201Z,973.19
2018-06-10T09:09:06.224Z,973.04
2018-06-10T09:10:05.928Z,973.10
2018-06-10T09:11:06.032Z,973.22
2018-06-10T09:12:06.682Z,973.13
2018-06-10T09:13:05.767Z,973.11
2018-06-10T09:14:05.607Z,973.11
2018-06-10T09:15:05.163Z,973.19
2018-06-10T09:16:05.937Z,973.28
2018-06-10T09:17:05.409Z,973.28
2018-06-10T09:18:04.940Z,973.22
2018-06-10T09:19:05.221Z,973.19
2018-06-10T09:20:05.215Z,973.14
2018-06-10T09:21:05.330Z,973.22
2018-06-10T09:22:05.052Z,973.08
2018-06-10T09:23:05.144Z,973.19
2018-06-10T09:24:05.045Z,973.11
2018-06-10T09:25:05.551Z,973.11
2018-06-10T09:26:05.472Z,973.17
2018-06-10T09:27:05.586Z,973.08
2018-06-10T09:28:05.458Z,973.08
2018-06-10T09:29:05.635Z,973.14
2018-06-10T09:30:05.325Z,973.31
2018-06-10T09:31:05.986Z,973.19
2018-06-10T09:32:05.696Z,973.19
2018-06-10T09:33:05.585Z,973.22
2018-06-10T09:34:05.186Z,973.31
2018-06-10T09:35:05.132Z,973.16
2018-06-10T09:36:05.473Z,973.22
2018-06-10T09:37:05.048Z,973.19
2018-06-10T09:38:05.809Z,973.22
2018-06-10T09:39:05.997Z,973.22
2018-06-10T09:40:05.657Z,973.33
2018-06-10T09:41:06.079Z,973.27
2018-06-10T09:42:05.995Z,973.15
2018-06-10T09:43:05.726Z,973.18
2018-06-10T09:44:05.899Z,973.30
2018-06-10T09:45:05.971Z,973.30
2018-06-10T09:46:05.481Z,973.24
2018-06-10T09:47:05.934Z,973.29
2018-06-10T09:48:05.544Z,973.21
2018-06-10T09:49:05.368Z,973.21
2018-06-10T09:50:10.403Z,973.26
2018-06-10T09:51:05.933Z,973.15
2018-06-10T09:52:05.081Z,973.26
2018-06-10T09:53:05.115Z,973.14
2018-06-10T09:54:05.145Z,973.20
2018-06-10T09:55:06.133Z,973.20
2018-06-10T09:56:05.359Z,973.14
2018-06-10T09:57:05.067Z,973.20
2018-06-10T09:58:05.351Z,973.31
2018-06-10T09:59:06.022Z,973.20
2018-06-10T10:00:05.717Z,973.34
2018-06-10T10:01:06.000Z,973.34
2018-06-10T10:02:05.574Z,973.34
2018-06-10T10:03:05.618Z,973.37
2018-06-10T10:04:05.144Z,973.28
2018-06-10T10:05:05.198Z,973.25
2018-06-10T10:06:05.276Z,973.25
2018-06-10T10:07:05.046Z,973.27
2018-06-10T10:08:05.573Z,973.30
2018-06-10T10:09:05.800Z,973.36
2018-06-10T10:10:05.727Z,973.24
2018-06-10T10:11:05.467Z,973.18
2018-06-10T10:12:05.348Z,973.32
2018-06-10T10:13:05.151Z,973.32
2018-06-10T10:14:05.141Z,973.23
2018-06-10T10:15:05.128Z,973.23
2018-06-10T10:16:05.444Z,973.11
2018-06-10T10:17:06.138Z,973.25
2018-06-10T10:18:05.693Z,973.10
2018-06-10T10:19:05.750Z,973.10
2018-06-10T10:20:05.896Z,973.27
2018-06-10T10:21:05.571Z,973.21
2018-06-10T10:22:05.295Z,973.12
2018-06-10T10:23:05.358Z,973.30
2018-06-10T10:24:06.112Z,973.21
2018-06-10T10:25:06.895Z,973.24
2018-06-10T10:26:04.946Z,973.27
2018-06-10T10:27:05.201Z,973.21
2018-06-10T10:28:05.060Z,973.06
2018-06-10T10:29:05.094Z,973.24
2018-06-10T10:30:05.744Z,973.29
2018-06-10T10:31:05.412Z,973.24
2018-06-10T10:32:06.518Z,973.29
2018-06-10T10:33:05.661Z,973.26
2018-06-10T10:34:05.422Z,973.20
2018-06-10T10:35:10.286Z,973.12
2018-06-10T10:36:05.287Z,973.17
2018-06-10T10:37:05.029Z,973.14
2018-06-10T10:38:05.171Z,973.14
2018-06-10T10:39:05.188Z,973.17
2018-06-10T10:40:05.358Z,973.14
2018-06-10T10:41:05.793Z,973.05
2018-06-10T10:42:05.009Z,973.04
2018-06-10T10:43:05.128Z,973.13
2018-06-10T10:44:05.107Z,973.07
2018-06-10T10:45:05.666Z,973.01
2018-06-10T10:46:10.457Z,972.98
2018-06-10T10:47:05.996Z,972.98
2018-06-10T10:48:05.796Z,972.94
2018-06-10T10:49:05.952Z,972.94
2018-06-10T10:50:04.907Z,972.90
2018-06-10T10:51:05.637Z,972.99
2018-06-10T10:52:05.335Z,972.98
2018-06-10T10:53:05.493Z,972.92
2018-06-10T10:54:05.581Z,972.91
2018-06-10T10:55:10.854Z,972.85
2018-06-10T10:56:05.989Z,972.81
2018-06-10T10:57:06.084Z,972.90
2018-06-10T10:58:05.975Z,972.92
2018-06-10T10:59:10.504Z,972.89
2018-06-10T11:00:06.196Z,972.88
2018-06-10T11:01:05.434Z,972.79
2018-06-10T11:02:10.218Z,972.87
2018-06-10T11:03:05.295Z,972.81
2018-06-10T11:04:05.758Z,972.86
2018-06-10T11:05:05.215Z,972.86
2018-06-10T11:06:05.708Z,972.91
2018-06-10T11:07:05.797Z,972.85
2018-06-10T11:08:05.134Z,972.88
2018-06-10T11:09:05.388Z,972.67
2018-06-10T11:10:05.325Z,972.84
2018-06-10T11:11:05.530Z,972.90
2018-06-10T11:12:05.634Z,972.99
2018-06-10T11:13:05.259Z,972.84
2018-06-10T11:14:05.664Z,972.87
2018-06-10T11:15:05.757Z,972.99
2018-06-10T11:16:05.627Z,972.75
2018-06-10T11:17:05.858Z,972.90
2018-06-10T11:18:05.574Z,972.81
2018-06-10T11:19:05.676Z,972.75
2018-06-10T11:20:05.314Z,972.93
2018-06-10T11:21:05.540Z,972.99
2018-06-10T11:22:05.180Z,972.76
2018-06-10T11:23:05.855Z,972.82
2018-06-10T11:24:05.581Z,972.76
2018-06-10T11:25:05.697Z,972.76
2018-06-10T11:26:05.369Z,972.78
2018-06-10T11:27:05.981Z,972.78
2018-06-10T11:28:05.578Z,972.78
2018-06-10T11:29:05.812Z,972.69
2018-06-10T11:30:05.527Z,972.63
2018-06-10T11:31:05.728Z,972.66
2018-06-10T11:32:05.701Z,972.66
2018-06-10T11:33:05.856Z,972.75
2018-06-10T11:34:05.112Z,972.64
2018-06-10T11:35:05.412Z,972.55
2018-06-10T11:36:05.182Z,972.58
2018-06-10T11:37:04.988Z,972.61
2018-06-10T11:38:06.333Z,972.61
2018-06-10T11:39:05.197Z,972.60
2018-06-10T11:40:06.030Z,972.72
2018-06-10T11:41:05.716Z,972.60
2018-06-10T11:42:05.864Z,972.60
2018-06-10T11:43:05.637Z,972.72
2018-06-10T11:44:06.001Z,972.77
2018-06-10T11:45:05.670Z,972.86
2018-06-10T11:46:05.610Z,972.83
2018-06-10T11:47:10.222Z,972.89
2018-06-10T11:48:05.511Z,972.95
2018-06-10T11:49:05.360Z,973.01
2018-06-10T11:50:05.221Z,972.92
2018-06-10T11:51:05.319Z,972.93
2018-06-10T11:52:05.307Z,972.96
2018-06-10T11:53:05.069Z,972.79
2018-06-10T11:54:05.699Z,972.79
2018-06-10T11:55:05.235Z,972.91
2018-06-10T11:56:05.233Z,972.88
2018-06-10T11:57:05.483Z,972.86
2018-06-10T11:58:05.370Z,972.86
2018-06-10T11:59:05.636Z,972.89
2018-06-10T12:00:05.676Z,972.89
2018-06-10T12:01:05.559Z,973.04
2018-06-10T12:02:05.313Z,973.02
2018-06-10T12:03:05.970Z,972.93
2018-06-10T12:04:05.994Z,972.99
2018-06-10T12:05:05.499Z,972.91
2018-06-10T12:06:05.356Z,972.82
2018-06-10T12:07:05.684Z,972.83
2018-06-10T12:08:05.334Z,972.74
2018-06-10T12:09:05.694Z,972.66
2018-06-10T12:10:05.929Z,972.72
2018-06-10T12:11:05.730Z,972.78
2018-06-10T12:12:06.058Z,972.81
2018-06-10T12:13:05.727Z,972.75
2018-06-10T12:14:05.529Z,972.76
2018-06-10T12:15:05.275Z,972.64
2018-06-10T12:16:05.284Z,972.65
2018-06-10T12:17:05.473Z,972.74
2018-06-10T12:18:10.266Z,972.77
2018-06-10T12:19:06.009Z,972.71
2018-06-10T12:20:05.695Z,972.80
2018-06-10T12:21:05.758Z,972.81
2018-06-10T12:22:05.361Z,972.75
2018-06-10T12:23:05.340Z,972.81
2018-06-10T12:24:05.224Z,972.84
2018-06-10T12:25:05.882Z,972.78
2018-06-10T12:26:05.900Z,972.87
2018-06-10T12:27:05.412Z,972.93
2018-06-10T12:28:05.327Z,972.90